Time;durP1;ratioP1;P1;durP2;ratioP2;P2;SDS_P1;SDS_P2;PMS_P1;PMS_P2;Temp;Humidity;BMP_temperature;BMP_pressure;BME280_temperature;BME280_humidity;BME280_pressure;Samples;Min_cycle;Max_cycle;Signal;HPM_P1;HPM_P2
2022/10/16 03:02:02;;;;;;;;;;;12.70;99.90;;;;;;5482730;23;19983;-66
2022/10/16 03:04:29;;;;;;;;;;;12.60;99.90;;;;;;5030150;28;19933;-66
2022/10/16 03:06:56;;;;;;;;;;;12.70;99.90;;;;;;5032285;28;19960;-65
2022/10/16 03:09:22;;;;;;;;;;;12.70;99.90;;;;;;5026968;28;19963;-66
2022/10/16 03:11:49;;;;;;;;;;;12.70;99.90;;;;;;5030514;28;19948;-65
2022/10/16 03:14:16;;;;;;;;;;;12.60;99.90;;;;;;5021829;28;19925;-65
2022/10/16 03:16:43;;;;;;;;;;;12.60;99.90;;;;;;5022295;28;19925;-65
2022/10/16 03:19:11;;;;;;;;;;;12.60;99.90;;;;;;5014683;28;19994;-65
2022/10/16 03:21:38;;;;;;;;;;;12.60;99.90;;;;;;5027210;28;19928;-65
2022/10/16 03:24:05;;;;;;;;;;;12.60;99.90;;;;;;5028575;28;19932;-64
2022/10/16 03:26:31;;;;;;;;;;;12.60;99.90;;;;;;5019933;28;19961;-64
2022/10/16 03:28:58;;;;;;;;;;;12.70;99.90;;;;;;5020153;28;19960;-64
2022/10/16 03:31:25;;;;;;;;;;;12.70;99.90;;;;;;5012387;28;20029;-66
2022/10/16 03:33:51;;;;;;;;;;;12.70;99.90;;;;;;5021029;28;19929;-66
2022/10/16 03:36:19;;;;;;;;;;;12.70;99.90;;;;;;5020597;28;19990;-66
2022/10/16 03:38:46;;;;;;;;;;;12.70;99.90;;;;;;5020217;28;19968;-65
2022/10/16 03:41:12;;;;;;;;;;;12.80;99.90;;;;;;5022084;28;19960;-66
2022/10/16 03:43:39;;;;;;;;;;;12.70;99.90;;;;;;5020993;28;20024;-65
2022/10/16 03:46:06;;;;;;;;;;;12.80;99.90;;;;;;5022310;28;20340;-65
2022/10/16 03:48:33;;;;;;;;;;;12.90;99.90;;;;;;5013488;28;20442;-66
2022/10/16 03:50:59;;;;;;;;;;;12.90;99.90;;;;;;5015279;28;19926;-66
2022/10/16 03:53:27;;;;;;;;;;;13.00;99.90;;;;;;5030951;28;20021;-66
2022/10/16 03:55:54;;;;;;;;;;;13.10;99.90;;;;;;5022243;28;19979;-66
2022/10/16 03:58:21;;;;;;;;;;;13.10;99.90;;;;;;5020092;28;19976;-66
2022/10/16 04:00:48;;;;;;;;;;;13.10;99.90;;;;;;5027766;28;20007;-66
2022/10/16 04:03:15;;;;;;;;;;;13.00;99.90;;;;;;5020559;28;19933;-65
2022/10/16 04:05:41;;;;;;;;;;;13.00;99.90;;;;;;5029580;28;19980;-66
2022/10/16 04:08:08;;;;;;;;;;;13.00;99.90;;;;;;5016078;28;19925;-66
2022/10/16 04:10:36;;;;;;;;;;;12.90;99.90;;;;;;5012050;28;19971;-66
2022/10/16 04:13:03;;;;;;;;;;;12.90;99.90;;;;;;5020314;28;19932;-65
2022/10/16 04:15:30;;;;;;;;;;;12.90;99.90;;;;;;5016029;28;19925;-65
2022/10/16 04:17:57;;;;;;;;;;;12.90;99.90;;;;;;5014649;28;20315;-65
2022/10/16 04:20:24;;;;;;;;;;;12.80;99.90;;;;;;5021708;28;19932;-65
2022/10/16 04:22:50;;;;;;;;;;;12.80;99.90;;;;;;5013367;28;19929;-65
2022/10/16 04:25:17;;;;;;;;;;;12.80;99.90;;;;;;5017265;28;19925;-67
2022/10/16 04:27:45;;;;;;;;;;;12.70;99.90;;;;;;5021042;28;19925;-65
2022/10/16 04:30:12;;;;;;;;;;;12.70;99.90;;;;;;5027624;28;19929;-65
2022/10/16 04:32:39;;;;;;;;;;;12.60;99.90;;;;;;5019359;28;19934;-66
2022/10/16 04:35:06;;;;;;;;;;;12.50;99.90;;;;;;5017920;28;19972;-68
2022/10/16 04:37:33;;;;;;;;;;;12.50;99.90;;;;;;5016835;28;20387;-69
2022/10/16 04:39:59;;;;;;;;;;;12.50;99.90;;;;;;5021426;28;19925;-69
2022/10/16 04:42:26;;;;;;;;;;;12.50;99.90;;;;;;5018335;28;20317;-69
2022/10/16 04:44:54;;;;;;;;;;;12.40;99.90;;;;;;5016367;28;19925;-67
2022/10/16 04:47:21;;;;;;;;;;;12.50;99.90;;;;;;5021709;28;19947;-68
2022/10/16 04:49:48;;;;;;;;;;;12.50;99.90;;;;;;5011458;28;19926;-68
2022/10/16 04:52:15;;;;;;;;;;;12.60;99.90;;;;;;5018045;28;19932;-67
2022/10/16 04:54:41;;;;;;;;;;;12.60;99.90;;;;;;5013016;28;19929;-66
2022/10/16 04:57:08;;;;;;;;;;;12.70;99.90;;;;;;5011445;28;20013;-65
2022/10/16 04:59:35;;;;;;;;;;;12.70;99.90;;;;;;5021194;28;19972;-65
2022/10/16 05:02:04;;;;;;;;;;;12.70;99.90;;;;;;5012273;28;20370;-65
2022/10/16 05:04:30;;;;;;;;;;;12.70;99.90;;;;;;5013650;28;19925;-65
2022/10/16 05:06:57;;;;;;;;;;;12.60;99.90;;;;;;5023855;28;19929;-65
2022/10/16 05:09:24;;;;;;;;;;;12.60;99.90;;;;;;5023763;28;19932;-65
2022/10/16 05:11:51;;;;;;;;;;;12.60;99.90;;;;;;5016919;28;19926;-65
2022/10/16 05:14:18;;;;;;;;;;;12.70;99.90;;;;;;5010736;28;19931;-65
2022/10/16 05:16:45;;;;;;;;;;;12.60;99.90;;;;;;5020444;28;20394;-65
2022/10/16 05:19:13;;;;;;;;;;;12.70;99.90;;;;;;5016592;28;19932;-65
2022/10/16 05:21:40;;;;;;;;;;;12.60;99.90;;;;;;5012450;28;19932;-65
2022/10/16 05:24:06;;;;;;;;;;;12.60;99.90;;;;;;5020086;28;20387;-65
2022/10/16 05:26:33;;;;;;;;;;;12.60;99.90;;;;;;5017695;28;19933;-65
2022/10/16 05:29:00;;;;;;;;;;;12.50;99.90;;;;;;5018528;28;19925;-65
2022/10/16 05:31:27;;;;;;;;;;;12.50;99.90;;;;;;5017432;28;19960;-65
2022/10/16 05:33:58;;;;;;;;;;;12.50;99.90;;;;;;5016151;28;19925;-65
2022/10/16 05:36:27;;;;;;;;;;;12.40;99.90;;;;;;5016239;28;20344;-65
2022/10/16 05:38:53;;;;;;;;;;;12.40;99.90;;;;;;5016840;28;19933;-65
2022/10/16 05:41:21;;;;;;;;;;;12.50;99.90;;;;;;5015548;28;19926;-65
2022/10/16 05:43:48;;;;;;;;;;;12.40;99.90;;;;;;5017168;28;20307;-65
2022/10/16 05:46:15;;;;;;;;;;;12.40;99.90;;;;;;5019957;28;19933;-65
2022/10/16 05:48:42;;;;;;;;;;;12.40;99.90;;;;;;5020903;28;19929;-65
2022/10/16 05:51:12;;;;;;;;;;;12.40;99.90;;;;;;5026007;28;20359;-65
2022/10/16 05:53:41;;;;;;;;;;;12.30;99.90;;;;;;5022008;28;19925;-65
2022/10/16 05:56:09;;;;;;;;;;;12.30;99.90;;;;;;5017309;28;19933;-65
2022/10/16 05:58:37;;;;;;;;;;;12.30;99.90;;;;;;5021025;28;20343;-67
2022/10/16 06:01:05;;;;;;;;;;;12.30;99.90;;;;;;5024622;28;19941;-70
2022/10/16 06:03:32;;;;;;;;;;;12.30;99.90;;;;;;5021626;28;19933;-70
2022/10/16 06:05:58;;;;;;;;;;;12.30;99.90;;;;;;5021106;28;20442;-65
2022/10/16 06:08:25;;;;;;;;;;;12.40;99.90;;;;;;5023347;28;19925;-64
2022/10/16 06:11:02;;;;;;;;;;;12.40;99.90;;;;;;5023256;28;19925;-65
2022/10/16 06:13:29;;;;;;;;;;;12.40;99.90;;;;;;5018063;28;19987;-65
2022/10/16 06:15:57;;;;;;;;;;;12.40;99.90;;;;;;5013170;28;19929;-65
2022/10/16 06:18:24;;;;;;;;;;;12.40;99.90;;;;;;5019725;28;19933;-66
2022/10/16 06:20:51;;;;;;;;;;;12.40;99.90;;;;;;5020011;28;20300;-66
2022/10/16 06:23:18;;;;;;;;;;;12.40;99.90;;;;;;5013837;28;20336;-65
2022/10/16 06:25:45;;;;;;;;;;;12.40;99.90;;;;;;5016641;28;20285;-64
2022/10/16 06:28:14;;;;;;;;;;;12.50;99.90;;;;;;5018622;28;19932;-65
2022/10/16 06:30:40;;;;;;;;;;;12.50;99.90;;;;;;5015222;28;19929;-66
2022/10/16 06:33:07;;;;;;;;;;;12.50;99.90;;;;;;5020022;28;20467;-65
2022/10/16 06:35:34;;;;;;;;;;;12.50;99.90;;;;;;5013332;28;19933;-66
2022/10/16 06:38:01;;;;;;;;;;;12.60;99.90;;;;;;5016195;28;19929;-65
2022/10/16 06:40:28;;;;;;;;;;;12.70;99.90;;;;;;5016169;28;19926;-65
2022/10/16 06:42:55;;;;;;;;;;;12.80;99.90;;;;;;5022810;28;19933;-66
2022/10/16 06:45:23;;;;;;;;;;;12.90;99.90;;;;;;5023284;28;19929;-65
2022/10/16 06:47:50;;;;;;;;;;;13.00;99.90;;;;;;5014514;28;19952;-68
2022/10/16 06:50:17;;;;;;;;;;;13.10;99.90;;;;;;5019867;28;19925;-67
2022/10/16 06:52:44;;;;;;;;;;;13.20;99.90;;;;;;5018557;28;19937;-70
2022/10/16 06:55:10;;;;;;;;;;;13.30;99.90;;;;;;5025604;28;19926;-68
2022/10/16 06:57:37;;;;;;;;;;;13.30;99.90;;;;;;5019114;28;19930;-67
2022/10/16 07:00:04;;;;;;;;;;;13.40;99.90;;;;;;5015195;28;20112;-69
2022/10/16 07:02:33;;;;;;;;;;;13.40;99.90;;;;;;5013704;28;20020;-67
2022/10/16 07:05:00;;;;;;;;;;;13.40;99.90;;;;;;5025914;28;19925;-67
2022/10/16 07:07:26;;;;;;;;;;;13.50;99.90;;;;;;5017382;28;19926;-68
2022/10/16 07:09:53;;;;;;;;;;;13.50;99.90;;;;;;5023277;28;19925;-68
2022/10/16 07:12:20;;;;;;;;;;;13.50;99.90;;;;;;5016506;28;19932;-68
2022/10/16 07:14:47;;;;;;;;;;;13.50;99.90;;;;;;5023336;28;19933;-67
2022/10/16 07:17:13;;;;;;;;;;;13.40;99.90;;;;;;5018559;28;19926;-68
2022/10/16 07:19:42;;;;;;;;;;;13.40;99.90;;;;;;5015195;28;19932;-67
2022/10/16 07:22:09;;;;;;;;;;;13.40;99.90;;;;;;5015068;28;19930;-67
2022/10/16 07:24:35;;;;;;;;;;;13.50;99.90;;;;;;5016115;28;19929;-67
2022/10/16 07:27:02;;;;;;;;;;;13.60;99.90;;;;;;5014005;28;19975;-67
2022/10/16 07:29:29;;;;;;;;;;;13.60;99.90;;;;;;5019988;28;19932;-67
2022/10/16 07:31:56;;;;;;;;;;;13.60;99.90;;;;;;5021894;28;19925;-67
2022/10/16 07:34:23;;;;;;;;;;;13.60;99.90;;;;;;5013382;28;19929;-67
2022/10/16 07:36:51;;;;;;;;;;;13.60;99.90;;;;;;5022804;28;20020;-67
2022/10/16 07:39:18;;;;;;;;;;;13.60;99.90;;;;;;5012320;28;19925;-67
2022/10/16 07:41:45;;;;;;;;;;;13.60;99.90;;;;;;5021069;28;19937;-68
2022/10/16 07:44:12;;;;;;;;;;;13.70;99.90;;;;;;5015504;28;19926;-68
2022/10/16 07:46:38;;;;;;;;;;;13.80;99.90;;;;;;5013892;28;19950;-67
2022/10/16 07:49:05;;;;;;;;;;;13.90;99.90;;;;;;5019552;28;19936;-67
2022/10/16 07:51:32;;;;;;;;;;;14.00;99.90;;;;;;5020413;28;19956;-67
2022/10/16 07:54:01;;;;;;;;;;;14.10;99.90;;;;;;5012543;28;19925;-68
2022/10/16 07:56:27;;;;;;;;;;;14.20;99.90;;;;;;5014913;28;19926;-68
2022/10/16 07:58:56;;;;;;;;;;;14.30;99.90;;;;;;5020413;28;19925;-67
2022/10/16 08:01:22;;;;;;;;;;;14.40;99.90;;;;;;5017768;28;19965;-67
2022/10/16 08:03:50;;;;;;;;;;;14.40;99.90;;;;;;5016776;28;19933;-67
2022/10/16 08:06:17;;;;;;;;;;;14.50;99.90;;;;;;5020705;28;19933;-69
2022/10/16 08:08:44;;;;;;;;;;;14.50;99.90;;;;;;5017396;28;19949;-67
2022/10/16 08:11:13;;;;;;;;;;;14.60;99.90;;;;;;5014695;28;19936;-67
2022/10/16 08:13:40;;;;;;;;;;;14.70;99.90;;;;;;5017912;28;20366;-67
2022/10/16 08:16:09;;;;;;;;;;;14.70;99.90;;;;;;5019840;28;19925;-66
2022/10/16 08:18:36;;;;;;;;;;;14.80;99.90;;;;;;5018115;28;19929;-66
2022/10/16 08:21:04;;;;;;;;;;;14.90;99.90;;;;;;5025573;28;19964;-66
2022/10/16 08:23:31;;;;;;;;;;;15.00;99.90;;;;;;5017737;28;19936;-67
2022/10/16 08:26:03;;;;;;;;;;;15.10;99.90;;;;;;5021987;28;19988;-66
2022/10/16 08:28:32;;;;;;;;;;;15.20;99.90;;;;;;5021903;28;19929;-68
2022/10/16 08:31:05;;;;;;;;;;;15.20;99.90;;;;;;5015822;28;20482;-66
2022/10/16 08:33:32;;;;;;;;;;;15.30;99.90;;;;;;5013641;28;19932;-66
2022/10/16 08:35:58;;;;;;;;;;;15.40;99.90;;;;;;5024918;28;19932;-66
2022/10/16 08:38:25;;;;;;;;;;;15.50;99.90;;;;;;5013724;28;19931;-66
2022/10/16 08:40:54;;;;;;;;;;;15.60;99.90;;;;;;5020206;28;19925;-67
2022/10/16 08:43:26;;;;;;;;;;;15.70;99.90;;;;;;5021948;28;20303;-66
2022/10/16 08:46:02;;;;;;;;;;;15.80;99.90;;;;;;5020556;28;19925;-66
2022/10/16 08:48:31;;;;;;;;;;;15.90;99.90;;;;;;5026084;28;19984;-68
2022/10/16 08:50:58;;;;;;;;;;;15.90;99.90;;;;;;5019025;28;19948;-67
2022/10/16 08:53:27;;;;;;;;;;;16.00;99.90;;;;;;5018339;28;19925;-67
2022/10/16 08:55:54;;;;;;;;;;;16.00;99.90;;;;;;5026217;28;19926;-66
2022/10/16 08:58:22;;;;;;;;;;;16.10;99.90;;;;;;5022121;28;19925;-71
2022/10/16 09:00:50;;;;;;;;;;;16.20;99.90;;;;;;5018063;28;19925;-66
2022/10/16 09:03:38;;;;;;;;;;;16.20;99.90;;;;;;5019247;28;19932;-67
2022/10/16 09:06:27;;;;;;;;;;;16.30;99.90;;;;;;5012209;28;19930;-67
2022/10/16 09:09:00;;;;;;;;;;;16.30;99.90;;;;;;5019523;28;19929;-67
2022/10/16 09:11:34;;;;;;;;;;;16.40;99.90;;;;;;5018488;28;19925;-66
2022/10/16 09:14:05;;;;;;;;;;;16.50;99.90;;;;;;5013896;28;19925;-67
2022/10/16 09:16:35;;;;;;;;;;;16.60;99.90;;;;;;5021704;28;19984;-67
2022/10/16 09:19:10;;;;;;;;;;;16.60;99.90;;;;;;5018826;28;20299;-67
2022/10/16 09:21:39;;;;;;;;;;;16.70;99.90;;;;;;5011970;28;19930;-67
2022/10/16 09:24:11;;;;;;;;;;;16.80;99.90;;;;;;5011886;28;19976;-66
2022/10/16 09:26:37;;;;;;;;;;;16.80;99.90;;;;;;5013864;28;20351;-67
2022/10/16 09:29:04;;;;;;;;;;;16.90;99.90;;;;;;5012353;28;19925;-66
2022/10/16 09:31:31;;;;;;;;;;;16.90;99.90;;;;;;5018345;28;20422;-67
2022/10/16 09:34:00;;;;;;;;;;;16.90;99.90;;;;;;5014201;28;19925;-67
2022/10/16 09:36:30;;;;;;;;;;;16.90;99.90;;;;;;5015272;28;19929;-66
2022/10/16 09:39:04;;;;;;;;;;;17.00;99.90;;;;;;5016829;28;20379;-67
2022/10/16 09:41:31;;;;;;;;;;;17.20;99.90;;;;;;5017926;28;19925;-67
2022/10/16 09:43:58;;;;;;;;;;;17.50;99.90;;;;;;5013196;28;19956;-67
2022/10/16 09:46:27;;;;;;;;;;;17.80;99.90;;;;;;5012638;28;19929;-68
2022/10/16 09:48:55;;;;;;;;;;;17.80;99.90;;;;;;5015432;28;19925;-67
2022/10/16 09:51:24;;;;;;;;;;;17.80;99.90;;;;;;5015420;28;19987;-67
2022/10/16 09:53:55;;;;;;;;;;;18.00;99.90;;;;;;5019033;28;19925;-67
2022/10/16 09:56:23;;;;;;;;;;;18.20;99.90;;;;;;5013223;28;19992;-67
2022/10/16 09:58:51;;;;;;;;;;;18.30;99.90;;;;;;5016313;28;19929;-67
2022/10/16 10:01:18;;;;;;;;;;;18.50;99.90;;;;;;5013285;28;20027;-67
2022/10/16 10:03:46;;;;;;;;;;;18.90;99.90;;;;;;5013767;28;19926;-67
2022/10/16 10:06:31;;;;;;;;;;;18.90;99.90;;;;;;5016668;28;19933;-67
2022/10/16 10:09:00;;;;;;;;;;;19.00;99.90;;;;;;5019875;28;20399;-67
2022/10/16 10:11:44;;;;;;;;;;;19.30;99.90;;;;;;5017643;28;20013;-67
2022/10/16 10:14:16;;;;;;;;;;;19.90;99.90;;;;;;5016882;28;19932;-67
2022/10/16 10:16:43;;;;;;;;;;;20.40;99.90;;;;;;5020691;28;19932;-67
2022/10/16 10:19:14;;;;;;;;;;;20.90;99.90;;;;;;5012918;28;19930;-67
2022/10/16 10:21:40;;;;;;;;;;;20.80;99.90;;;;;;5016953;28;20019;-67
2022/10/16 10:24:11;;;;;;;;;;;21.30;99.90;;;;;;5013548;28;20359;-67
2022/10/16 10:26:39;;;;;;;;;;;24.40;99.90;;;;;;5015673;28;19952;-67
2022/10/16 10:29:08;;;;;;;;;;;24.00;99.90;;;;;;5018831;28;19929;-67
2022/10/16 10:31:40;;;;;;;;;;;25.60;99.90;;;;;;5021085;28;19925;-67
2022/10/16 10:34:24;;;;;;;;;;;24.00;99.90;;;;;;5018404;28;19931;-67
2022/10/16 10:36:55;;;;;;;;;;;28.10;99.90;;;;;;5019764;28;19925;-67
2022/10/16 10:39:26;;;;;;;;;;;29.60;99.90;;;;;;5016957;28;19925;-67
2022/10/16 10:42:11;;;;;;;;;;;29.70;99.90;;;;;;5023857;28;19933;-76
2022/10/16 10:44:44;;;;;;;;;;;27.40;99.90;;;;;;5019745;28;19925;-67
2022/10/16 10:47:15;;;;;;;;;;;26.40;99.90;;;;;;5017348;28;19948;-67
2022/10/16 10:49:47;;;;;;;;;;;23.80;99.90;;;;;;5016156;28;19933;-67
2022/10/16 10:52:26;;;;;;;;;;;21.90;99.90;;;;;;5018847;28;19926;-67
2022/10/16 10:54:58;;;;;;;;;;;22.70;99.90;;;;;;5022103;28;19940;-67
2022/10/16 10:57:29;;;;;;;;;;;27.20;99.90;;;;;;5015501;28;19925;-68
2022/10/16 11:00:02;;;;;;;;;;;30.30;99.90;;;;;;5007777;28;19929;-67
2022/10/16 11:02:34;;;;;;;;;;;32.70;99.90;;;;;;5007854;28;19929;-68
2022/10/16 11:05:16;;;;;;;;;;;34.50;99.90;;;;;;5014035;28;19925;-67
2022/10/16 11:07:45;;;;;;;;;;;32.10;99.90;;;;;;5013586;28;19926;-67
2022/10/16 11:10:19;;;;;;;;;;;28.80;99.90;;;;;;5013515;28;19945;-67
2022/10/16 11:12:48;;;;;;;;;;;26.50;99.90;;;;;;5016976;28;19936;-67
2022/10/16 11:15:18;;;;;;;;;;;25.60;99.90;;;;;;5021092;28;19926;-67
2022/10/16 11:17:48;;;;;;;;;;;28.80;99.90;;;;;;5013723;28;19979;-68
2022/10/16 11:20:18;;;;;;;;;;;31.80;99.90;;;;;;5029420;28;19933;-68
2022/10/16 11:22:48;;;;;;;;;;;35.30;99.90;;;;;;5026799;28;20338;-68
2022/10/16 11:25:19;;;;;;;;;;;36.50;99.90;;;;;;5014711;28;20349;-67
2022/10/16 11:27:48;;;;;;;;;;;30.50;99.90;;;;;;5013974;28;19925;-68
2022/10/16 11:30:16;;;;;;;;;;;29.10;99.90;;;;;;5025154;28;19925;-67
2022/10/16 11:32:50;;;;;;;;;;;30.00;99.90;;;;;;5018365;28;20362;-67
2022/10/16 11:35:19;;;;;;;;;;;28.60;99.90;;;;;;5009897;28;19926;-68
2022/10/16 11:37:49;;;;;;;;;;;27.40;99.90;;;;;;5018287;28;19968;-67
2022/10/16 11:40:22;;;;;;;;;;;26.00;99.90;;;;;;5016985;28;20285;-67
2022/10/16 11:42:51;;;;;;;;;;;25.40;99.90;;;;;;5012197;28;19936;-67
2022/10/16 11:45:25;;;;;;;;;;;25.90;99.90;;;;;;5016682;28;19937;-67
2022/10/16 11:47:55;;;;;;;;;;;27.60;99.90;;;;;;5019481;28;19990;-67
2022/10/16 11:50:24;;;;;;;;;;;30.10;99.90;;;;;;5026736;28;19929;-67
2022/10/16 11:52:54;;;;;;;;;;;32.60;99.90;;;;;;5025924;28;19932;-67
2022/10/16 11:55:24;;;;;;;;;;;31.50;99.90;;;;;;5023165;28;19987;-68
2022/10/16 11:57:53;;;;;;;;;;;29.60;99.90;;;;;;5023625;28;19980;-67
2022/10/16 12:00:22;;;;;;;;;;;27.90;99.90;;;;;;5022423;28;19925;-67
2022/10/16 12:02:58;;;;;;;;;;;27.30;99.90;;;;;;5016434;28;20028;-67
2022/10/16 12:05:29;;;;;;;;;;;25.80;99.90;;;;;;5014199;28;19933;-67
2022/10/16 12:08:04;;;;;;;;;;;25.60;99.90;;;;;;5022411;28;20350;-67
2022/10/16 12:10:36;;;;;;;;;;;23.60;99.90;;;;;;5019252;28;20271;-67
2022/10/16 12:13:03;;;;;;;;;;;23.60;99.90;;;;;;5017840;28;20403;-67
2022/10/16 12:15:31;;;;;;;;;;;25.00;99.90;;;;;;5017209;28;19991;-67
2022/10/16 12:17:58;;;;;;;;;;;25.50;99.90;;;;;;5018892;28;20384;-67
2022/10/16 12:20:27;;;;;;;;;;;28.90;99.90;;;;;;5023098;28;19929;-67
2022/10/16 12:22:55;;;;;;;;;;;30.20;99.90;;;;;;5025814;28;19932;-67
2022/10/16 12:25:23;;;;;;;;;;;30.00;99.90;;;;;;5017498;28;20020;-68
2022/10/16 12:27:59;;;;;;;;;;;28.60;99.90;;;;;;5019166;28;19929;-67
2022/10/16 12:30:27;;;;;;;;;;;27.70;99.90;;;;;;5013299;28;19930;-66
2022/10/16 12:32:54;;;;;;;;;;;24.50;99.90;;;;;;5015648;28;20035;-67
2022/10/16 12:35:22;;;;;;;;;;;23.50;99.90;;;;;;5016146;28;19926;-67
2022/10/16 12:37:50;;;;;;;;;;;23.60;99.90;;;;;;5015161;28;19929;-67
2022/10/16 12:40:25;;;;;;;;;;;24.30;99.90;;;;;;5015880;28;20352;-67
2022/10/16 12:42:52;;;;;;;;;;;24.20;99.90;;;;;;5024966;28;20338;-67
2022/10/16 12:45:26;;;;;;;;;;;23.70;99.90;;;;;;5010756;28;19925;-67
2022/10/16 12:47:54;;;;;;;;;;;24.20;99.90;;;;;;5017409;28;19932;-67
2022/10/16 12:50:30;;;;;;;;;;;27.90;99.90;;;;;;5024441;28;20376;-68
2022/10/16 12:52:57;;;;;;;;;;;29.80;99.90;;;;;;5017356;28;20273;-69
2022/10/16 12:55:24;;;;;;;;;;;31.80;99.90;;;;;;5018624;28;19971;-68
2022/10/16 12:57:59;;;;;;;;;;;32.60;99.90;;;;;;5015857;28;20503;-68
2022/10/16 13:00:32;;;;;;;;;;;33.40;99.90;;;;;;5021588;28;19925;-66
2022/10/16 13:03:23;;;;;;;;;;;34.30;99.90;;;;;;5021202;28;19925;-67
2022/10/16 13:05:56;;;;;;;;;;;34.10;99.90;;;;;;5024206;28;19928;-66
2022/10/16 13:08:29;;;;;;;;;;;32.40;99.90;;;;;;5025933;28;19956;-66
2022/10/16 13:11:02;;;;;;;;;;;32.00;99.90;;;;;;5018602;28;19925;-66
2022/10/16 13:13:39;;;;;;;;;;;32.70;99.90;;;;;;5016903;28;19925;-67
2022/10/16 13:16:13;;;;;;;;;;;33.60;99.90;;;;;;5016926;28;19932;-67
2022/10/16 13:18:45;;;;;;;;;;;33.90;99.90;;;;;;5016050;28;19929;-67
2022/10/16 13:21:18;;;;;;;;;;;34.30;99.90;;;;;;5018459;28;19926;-67
2022/10/16 13:23:49;;;;;;;;;;;34.20;99.90;;;;;;5022456;28;19925;-67
2022/10/16 13:26:20;;;;;;;;;;;34.30;99.90;;;;;;5022706;28;19932;-67
2022/10/16 13:28:47;;;;;;;;;;;33.20;99.90;;;;;;5018342;28;19930;-67
2022/10/16 13:31:18;;;;;;;;;;;31.80;99.90;;;;;;5010767;28;19925;-66
2022/10/16 13:33:47;;;;;;;;;;;28.50;99.90;;;;;;5022020;28;19925;-66
2022/10/16 13:36:22;;;;;;;;;;;27.20;99.90;;;;;;5021614;28;19975;-67
2022/10/16 13:38:49;;;;;;;;;;;26.50;99.90;;;;;;5013040;28;19940;-67
2022/10/16 13:41:18;;;;;;;;;;;26.10;99.90;;;;;;5013924;28;19925;-66
2022/10/16 13:43:46;;;;;;;;;;;25.90;99.90;;;;;;5014882;28;19932;-66
2022/10/16 13:46:14;;;;;;;;;;;25.70;99.90;;;;;;5021873;28;19926;-67
2022/10/16 13:48:42;;;;;;;;;;;25.60;99.90;;;;;;5022085;28;19929;-67
2022/10/16 13:51:13;;;;;;;;;;;25.40;99.90;;;;;;5015022;28;19929;-65
2022/10/16 13:53:40;;;;;;;;;;;25.20;99.90;;;;;;5015647;28;19926;-66
2022/10/16 13:56:08;;;;;;;;;;;25.00;99.90;;;;;;5016278;28;19932;-70
2022/10/16 13:58:34;;;;;;;;;;;25.00;99.90;;;;;;5012868;28;19969;-66
2022/10/16 14:01:02;;;;;;;;;;;24.90;99.90;;;;;;5024328;28;19925;-67
2022/10/16 14:03:30;;;;;;;;;;;24.70;99.90;;;;;;5020194;28;19925;-66
2022/10/16 14:05:59;;;;;;;;;;;24.40;99.90;;;;;;5030674;28;20347;-67
2022/10/16 14:08:26;;;;;;;;;;;24.10;99.90;;;;;;5030637;28;19925;-66
2022/10/16 14:10:54;;;;;;;;;;;23.90;99.90;;;;;;5015868;28;20016;-66
2022/10/16 14:13:24;;;;;;;;;;;23.60;99.90;;;;;;5027746;28;19929;-66
2022/10/16 14:15:54;;;;;;;;;;;23.30;99.90;;;;;;5017599;28;19929;-67
2022/10/16 14:18:21;;;;;;;;;;;23.10;99.90;;;;;;5014768;28;19932;-67
2022/10/16 14:20:49;;;;;;;;;;;22.80;99.90;;;;;;5015714;28;19931;-66
2022/10/16 14:23:22;;;;;;;;;;;22.60;99.90;;;;;;5021082;28;19976;-67
2022/10/16 14:25:49;;;;;;;;;;;22.40;99.90;;;;;;5016935;28;19929;-66
2022/10/16 14:28:17;;;;;;;;;;;22.30;99.90;;;;;;5017490;28;19925;-66
2022/10/16 14:30:50;;;;;;;;;;;22.20;99.90;;;;;;5022071;28;19925;-66
2022/10/16 14:33:24;;;;;;;;;;;22.10;99.90;;;;;;5012710;28;19925;-66
2022/10/16 14:36:02;;;;;;;;;;;22.10;99.90;;;;;;5022948;28;19932;-66
2022/10/16 14:38:30;;;;;;;;;;;22.00;99.90;;;;;;5018832;28;19944;-66
2022/10/16 14:40:58;;;;;;;;;;;21.90;99.90;;;;;;5017939;28;20312;-66
2022/10/16 14:43:30;;;;;;;;;;;21.80;99.90;;;;;;5014274;28;19944;-67
2022/10/16 14:45:57;;;;;;;;;;;21.70;99.90;;;;;;5026601;28;19936;-67
2022/10/16 14:48:25;;;;;;;;;;;21.70;99.90;;;;;;5017087;28;19929;-66
2022/10/16 14:50:52;;;;;;;;;;;21.60;99.90;;;;;;5014284;28;19929;-66
2022/10/16 14:53:18;;;;;;;;;;;21.50;99.90;;;;;;5016786;28;19925;-66
2022/10/16 14:55:48;;;;;;;;;;;21.50;99.90;;;;;;5019918;28;19968;-66
2022/10/16 14:58:16;;;;;;;;;;;21.50;99.90;;;;;;5016754;28;20308;-66
2022/10/16 15:00:43;;;;;;;;;;;21.50;99.90;;;;;;5013302;28;19929;-67
2022/10/16 15:03:09;;;;;;;;;;;21.50;99.90;;;;;;5017583;28;19925;-66
2022/10/16 15:05:36;;;;;;;;;;;21.50;99.90;;;;;;5022415;28;19925;-65
2022/10/16 15:08:04;;;;;;;;;;;21.40;99.90;;;;;;5020504;28;19955;-66
2022/10/16 15:10:32;;;;;;;;;;;21.40;99.90;;;;;;5025106;28;20035;-66
2022/10/16 15:13:00;;;;;;;;;;;21.30;99.90;;;;;;5018795;28;19925;-66
2022/10/16 15:15:35;;;;;;;;;;;21.20;99.90;;;;;;5023216;28;19933;-66
2022/10/16 15:18:02;;;;;;;;;;;21.10;99.90;;;;;;5014306;28;20127;-65
2022/10/16 15:20:30;;;;;;;;;;;21.00;99.90;;;;;;5013914;28;20288;-66
2022/10/16 15:22:56;;;;;;;;;;;20.80;99.90;;;;;;5024323;28;19925;-66
2022/10/16 15:25:29;;;;;;;;;;;20.70;99.90;;;;;;5023986;28;19925;-66
2022/10/16 15:27:56;;;;;;;;;;;20.50;99.90;;;;;;5016648;28;20312;-66
2022/10/16 15:30:24;;;;;;;;;;;20.40;99.90;;;;;;5021024;28;19929;-66
2022/10/16 15:32:51;;;;;;;;;;;20.30;99.90;;;;;;5013029;28;19925;-66
2022/10/16 15:35:18;;;;;;;;;;;20.30;99.90;;;;;;5013227;28;19929;-66
2022/10/16 15:37:45;;;;;;;;;;;20.20;99.90;;;;;;5016954;28;19925;-66
2022/10/16 15:40:12;;;;;;;;;;;20.20;99.90;;;;;;5013401;28;19926;-66
2022/10/16 15:42:39;;;;;;;;;;;20.20;99.90;;;;;;5014602;28;19979;-68
2022/10/16 15:45:06;;;;;;;;;;;20.20;99.90;;;;;;5013621;28;19933;-67
2022/10/16 15:47:34;;;;;;;;;;;20.20;99.90;;;;;;5025357;28;19984;-67
2022/10/16 15:50:01;;;;;;;;;;;20.00;99.90;;;;;;5025517;28;19932;-67
2022/10/16 15:52:28;;;;;;;;;;;19.90;99.90;;;;;;5015693;28;19926;-67
2022/10/16 15:54:55;;;;;;;;;;;19.80;99.90;;;;;;5013667;28;19933;-67
2022/10/16 15:57:22;;;;;;;;;;;19.70;99.90;;;;;;5012318;28;19980;-67
2022/10/16 15:59:49;;;;;;;;;;;19.60;99.90;;;;;;5012918;28;19926;-67
2022/10/16 16:02:16;;;;;;;;;;;19.50;99.90;;;;;;5013683;28;19929;-69
2022/10/16 16:04:44;;;;;;;;;;;19.50;99.90;;;;;;5032869;28;19976;-68
2022/10/16 16:07:11;;;;;;;;;;;19.40;99.90;;;;;;5016945;28;19929;-74
2022/10/16 16:09:37;;;;;;;;;;;19.30;99.90;;;;;;5015353;28;19976;-68
2022/10/16 16:12:04;;;;;;;;;;;19.20;99.90;;;;;;5020687;28;19933;-70
2022/10/16 16:14:31;;;;;;;;;;;19.20;99.90;;;;;;5024551;28;19937;-67
2022/10/16 16:16:58;;;;;;;;;;;19.10;99.90;;;;;;5023087;28;19925;-68
2022/10/16 16:19:25;;;;;;;;;;;19.00;99.90;;;;;;5019276;28;20410;-67
2022/10/16 16:21:53;;;;;;;;;;;18.90;99.90;;;;;;5023626;28;19926;-67
2022/10/16 16:24:20;;;;;;;;;;;18.90;99.90;;;;;;5014941;28;19930;-67
2022/10/16 16:26:47;;;;;;;;;;;18.80;99.90;;;;;;5013979;28;19929;-67
2022/10/16 16:29:15;;;;;;;;;;;18.70;99.90;;;;;;5015152;28;19929;-66
2022/10/16 16:31:42;;;;;;;;;;;18.60;99.90;;;;;;5020626;28;19932;-67
2022/10/16 16:34:09;;;;;;;;;;;18.60;99.90;;;;;;5021936;28;19931;-67
2022/10/16 16:36:36;;;;;;;;;;;18.50;99.90;;;;;;5011959;28;19948;-68
2022/10/16 16:39:04;;;;;;;;;;;18.40;99.90;;;;;;5018368;28;19926;-67
2022/10/16 16:41:32;;;;;;;;;;;18.40;99.90;;;;;;5025462;28;19933;-67
2022/10/16 16:44:02;;;;;;;;;;;18.30;99.90;;;;;;5018819;28;19955;-67
2022/10/16 16:46:29;;;;;;;;;;;18.30;99.90;;;;;;5016245;28;19925;-67
2022/10/16 16:48:58;;;;;;;;;;;18.20;99.90;;;;;;5017046;28;19929;-66
2022/10/16 16:51:25;;;;;;;;;;;18.10;99.90;;;;;;5016727;28;19925;-67
2022/10/16 16:53:52;;;;;;;;;;;18.10;99.90;;;;;;5013480;28;19926;-67
2022/10/16 16:56:21;;;;;;;;;;;18.10;99.90;;;;;;5037672;23;19925;-67
2022/10/16 16:58:48;;;;;;;;;;;18.00;99.90;;;;;;5023395;28;20458;-72
2022/10/16 17:01:15;;;;;;;;;;;18.00;99.90;;;;;;5020212;28;19971;-67
2022/10/16 17:03:43;;;;;;;;;;;17.90;99.90;;;;;;5023340;28;19929;-68
2022/10/16 17:06:11;;;;;;;;;;;17.90;99.90;;;;;;5024937;28;19930;-67
2022/10/16 17:08:38;;;;;;;;;;;17.80;99.90;;;;;;5016753;28;19929;-68
2022/10/16 17:11:05;;;;;;;;;;;17.80;99.90;;;;;;5018417;28;19972;-66
2022/10/16 17:13:35;;;;;;;;;;;17.80;99.90;;;;;;5025722;28;20382;-67
2022/10/16 17:16:02;;;;;;;;;;;17.70;99.90;;;;;;5013217;28;20423;-68
2022/10/16 17:18:29;;;;;;;;;;;17.70;99.90;;;;;;5017976;28;19926;-68
2022/10/16 17:20:55;;;;;;;;;;;17.70;99.90;;;;;;5020034;28;19972;-69
2022/10/16 17:23:22;;;;;;;;;;;17.70;99.90;;;;;;5017415;28;20030;-69
2022/10/16 17:25:48;;;;;;;;;;;17.60;99.90;;;;;;5018333;28;19932;-68